sensor_id;sensor_type;location;lat;lon;timestamp;temperature;humidity
45435;DHT22;31183;47.404;8.500;2024-02-28T00:01:20;9.10;99.90
45435;DHT22;31183;47.404;8.500;2024-02-28T00:03:46;9.10;99.90
45435;DHT22;31183;47.404;8.500;2024-02-28T00:06:16;9.10;99.90
45435;DHT22;31183;47.404;8.500;2024-02-28T00:08:43;9.10;99.90
45435;DHT22;31183;47.404;8.500;2024-02-28T00:11:10;9.20;99.90
45435;DHT22;31183;47.404;8.500;2024-02-28T00:13:36;9.20;99.90
45435;DHT22;31183;47.404;8.500;2024-02-28T00:16:03;9.20;99.90
45435;DHT22;31183;47.404;8.500;2024-02-28T00:18:30;9.20;99.90
45435;DHT22;31183;47.404;8.500;2024-02-28T00:20:57;9.20;99.90
45435;DHT22;31183;47.404;8.500;2024-02-28T00:23:25;9.20;99.90
45435;DHT22;31183;47.404;8.500;2024-02-28T00:25:52;9.20;99.90
45435;DHT22;31183;47.404;8.500;2024-02-28T00:28:18;9.20;99.90
45435;DHT22;31183;47.404;8.500;2024-02-28T00:30:46;9.30;99.90
45435;DHT22;31183;47.404;8.500;2024-02-28T00:33:12;9.20;99.90
45435;DHT22;31183;47.404;8.500;2024-02-28T00:35:40;9.30;99.90
45435;DHT22;31183;47.404;8.500;2024-02-28T00:38:08;9.20;99.90
45435;DHT22;31183;47.404;8.500;2024-02-28T00:40:35;9.20;99.90
45435;DHT22;31183;47.404;8.500;2024-02-28T00:43:01;9.20;99.90
45435;DHT22;31183;47.404;8.500;2024-02-28T00:45:28;9.20;99.90
45435;DHT22;31183;47.404;8.500;2024-02-28T00:47:55;9.20;99.90
45435;DHT22;31183;47.404;8.500;2024-02-28T00:50:22;9.20;99.90
45435;DHT22;31183;47.404;8.500;2024-02-28T00:52:48;9.20;99.90
45435;DHT22;31183;47.404;8.500;2024-02-28T00:55:15;9.20;99.90
45435;DHT22;31183;47.404;8.500;2024-02-28T00:57:42;9.20;99.90
45435;DHT22;31183;47.404;8.500;2024-02-28T01:00:09;9.30;99.90
45435;DHT22;31183;47.404;8.500;2024-02-28T01:02:36;9.30;99.90
45435;DHT22;31183;47.404;8.500;2024-02-28T01:05:03;9.30;99.90
45435;DHT22;31183;47.404;8.500;2024-02-28T01:07:30;9.30;99.90
45435;DHT22;31183;47.404;8.500;2024-02-28T01:09:56;9.30;99.90
45435;DHT22;31183;47.404;8.500;2024-02-28T01:12:23;9.20;99.90
45435;DHT22;31183;47.404;8.500;2024-02-28T01:14:50;9.30;99.90
45435;DHT22;31183;47.404;8.500;2024-02-28T01:17:17;9.20;99.90
45435;DHT22;31183;47.404;8.500;2024-02-28T01:19:43;9.30;99.90
45435;DHT22;31183;47.404;8.500;2024-02-28T01:22:10;9.30;99.90
45435;DHT22;31183;47.404;8.500;2024-02-28T01:24:37;9.30;99.90
45435;DHT22;31183;47.404;8.500;2024-02-28T01:27:03;9.20;99.90
45435;DHT22;31183;47.404;8.500;2024-02-28T01:29:30;9.20;99.90
45435;DHT22;31183;47.404;8.500;2024-02-28T01:31:57;9.30;99.90
45435;DHT22;31183;47.404;8.500;2024-02-28T01:34:23;9.30;99.90
45435;DHT22;31183;47.404;8.500;2024-02-28T01:36:50;9.20;99.90
45435;DHT22;31183;47.404;8.500;2024-02-28T01:39:17;9.30;99.90
45435;DHT22;31183;47.404;8.500;2024-02-28T01:41:54;9.30;99.90
45435;DHT22;31183;47.404;8.500;2024-02-28T01:44:21;9.30;99.90
45435;DHT22;31183;47.404;8.500;2024-02-28T01:46:48;9.30;99.90
45435;DHT22;31183;47.404;8.500;2024-02-28T01:49:15;9.30;99.90
45435;DHT22;31183;47.404;8.500;2024-02-28T01:51:42;9.30;99.90
45435;DHT22;31183;47.404;8.500;2024-02-28T01:54:11;9.30;99.90
45435;DHT22;31183;47.404;8.500;2024-02-28T01:56:38;9.30;99.90
45435;DHT22;31183;47.404;8.500;2024-02-28T01:59:05;9.30;99.90
45435;DHT22;31183;47.404;8.500;2024-02-28T02:01:32;9.20;99.90
45435;DHT22;31183;47.404;8.500;2024-02-28T02:03:59;9.20;99.90
45435;DHT22;31183;47.404;8.500;2024-02-28T02:06:26;9.30;99.90
45435;DHT22;31183;47.404;8.500;2024-02-28T02:08:52;9.20;99.90
45435;DHT22;31183;47.404;8.500;2024-02-28T02:11:21;9.20;99.90
45435;DHT22;31183;47.404;8.500;2024-02-28T02:13:52;9.20;99.90
45435;DHT22;31183;47.404;8.500;2024-02-28T02:16:19;9.20;99.90
45435;DHT22;31183;47.404;8.500;2024-02-28T02:18:49;9.10;99.90
45435;DHT22;31183;47.404;8.500;2024-02-28T02:21:18;9.10;99.90
45435;DHT22;31183;47.404;8.500;2024-02-28T02:23:45;9.20;99.90
45435;DHT22;31183;47.404;8.500;2024-02-28T02:26:11;9.20;99.90
45435;DHT22;31183;47.404;8.500;2024-02-28T02:28:38;9.20;99.90
45435;DHT22;31183;47.404;8.500;2024-02-28T02:31:05;9.20;99.90
45435;DHT22;31183;47.404;8.500;2024-02-28T02:33:32;9.10;99.90
45435;DHT22;31183;47.404;8.500;2024-02-28T02:35:58;9.10;99.90
45435;DHT22;31183;47.404;8.500;2024-02-28T02:38:25;9.10;99.90
45435;DHT22;31183;47.404;8.500;2024-02-28T02:40:52;9.10;99.90
45435;DHT22;31183;47.404;8.500;2024-02-28T02:43:19;9.10;99.90
45435;DHT22;31183;47.404;8.500;2024-02-28T02:45:45;9.10;99.90
45435;DHT22;31183;47.404;8.500;2024-02-28T02:48:12;9.10;99.90
45435;DHT22;31183;47.404;8.500;2024-02-28T02:50:39;9.10;99.90
45435;DHT22;31183;47.404;8.500;2024-02-28T02:53:08;9.10;99.90
45435;DHT22;31183;47.404;8.500;2024-02-28T02:55:35;9.10;99.90
45435;DHT22;31183;47.404;8.500;2024-02-28T02:58:02;9.10;99.90
45435;DHT22;31183;47.404;8.500;2024-02-28T03:00:29;9.10;99.90
45435;DHT22;31183;47.404;8.500;2024-02-28T03:02:55;9.10;99.90
45435;DHT22;31183;47.404;8.500;2024-02-28T03:05:22;9.20;99.90
45435;DHT22;31183;47.404;8.500;2024-02-28T03:07:49;9.20;99.90
45435;DHT22;31183;47.404;8.500;2024-02-28T03:10:16;9.10;99.90
45435;DHT22;31183;47.404;8.500;2024-02-28T03:12:42;9.10;99.90
45435;DHT22;31183;47.404;8.500;2024-02-28T03:15:09;9.10;99.90
45435;DHT22;31183;47.404;8.500;2024-02-28T03:17:35;9.10;99.90
45435;DHT22;31183;47.404;8.500;2024-02-28T03:20:02;9.10;99.90
45435;DHT22;31183;47.404;8.500;2024-02-28T03:22:29;9.10;99.90
45435;DHT22;31183;47.404;8.500;2024-02-28T03:24:56;9.00;99.90
45435;DHT22;31183;47.404;8.500;2024-02-28T03:27:23;9.20;99.90
45435;DHT22;31183;47.404;8.500;2024-02-28T03:29:49;9.10;99.90
45435;DHT22;31183;47.404;8.500;2024-02-28T03:32:16;9.00;99.90
45435;DHT22;31183;47.404;8.500;2024-02-28T03:34:42;9.00;99.90
45435;DHT22;31183;47.404;8.500;2024-02-28T03:37:09;8.90;99.90
45435;DHT22;31183;47.404;8.500;2024-02-28T03:39:36;9.00;99.90
45435;DHT22;31183;47.404;8.500;2024-02-28T03:42:03;8.90;99.90
45435;DHT22;31183;47.404;8.500;2024-02-28T03:44:30;8.80;99.90
45435;DHT22;31183;47.404;8.500;2024-02-28T03:46:56;8.90;99.90
45435;DHT22;31183;47.404;8.500;2024-02-28T03:49:23;8.90;99.90
45435;DHT22;31183;47.404;8.500;2024-02-28T03:51:49;8.80;99.90
45435;DHT22;31183;47.404;8.500;2024-02-28T03:54:16;8.90;99.90
45435;DHT22;31183;47.404;8.500;2024-02-28T03:56:44;8.90;99.90
45435;DHT22;31183;47.404;8.500;2024-02-28T03:59:10;8.90;99.90
45435;DHT22;31183;47.404;8.500;2024-02-28T04:01:37;8.90;99.90
45435;DHT22;31183;47.404;8.500;2024-02-28T04:04:04;8.90;99.90
45435;DHT22;31183;47.404;8.500;2024-02-28T04:06:31;9.00;99.90
45435;DHT22;31183;47.404;8.500;2024-02-28T04:08:57;9.00;99.90
45435;DHT22;31183;47.404;8.500;2024-02-28T04:11:24;8.90;99.90
45435;DHT22;31183;47.404;8.500;2024-02-28T04:13:51;8.90;99.90
45435;DHT22;31183;47.404;8.500;2024-02-28T04:16:18;8.80;99.90
45435;DHT22;31183;47.404;8.500;2024-02-28T04:18:45;8.80;99.90
45435;DHT22;31183;47.404;8.500;2024-02-28T04:21:11;8.80;99.90
45435;DHT22;31183;47.404;8.500;2024-02-28T04:23:38;8.80;99.90
45435;DHT22;31183;47.404;8.500;2024-02-28T04:26:05;8.80;99.90
45435;DHT22;31183;47.404;8.500;2024-02-28T04:28:32;8.80;99.90
45435;DHT22;31183;47.404;8.500;2024-02-28T04:30:58;8.80;99.90
45435;DHT22;31183;47.404;8.500;2024-02-28T04:33:25;8.80;99.90
45435;DHT22;31183;47.404;8.500;2024-02-28T04:35:52;8.80;99.90
45435;DHT22;31183;47.404;8.500;2024-02-28T04:38:19;8.90;99.90
45435;DHT22;31183;47.404;8.500;2024-02-28T04:40:45;8.80;99.90
45435;DHT22;31183;47.404;8.500;2024-02-28T04:43:12;8.80;99.90
45435;DHT22;31183;47.404;8.500;2024-02-28T04:45:39;8.80;99.90
45435;DHT22;31183;47.404;8.500;2024-02-28T04:48:06;8.70;99.90
45435;DHT22;31183;47.404;8.500;2024-02-28T04:50:33;8.70;99.90
45435;DHT22;31183;47.404;8.500;2024-02-28T04:53:00;8.80;99.90
45435;DHT22;31183;47.404;8.500;2024-02-28T04:55:27;8.80;99.90
45435;DHT22;31183;47.404;8.500;2024-02-28T04:57:53;8.80;99.90
45435;DHT22;31183;47.404;8.500;2024-02-28T05:00:20;8.80;99.90
45435;DHT22;31183;47.404;8.500;2024-02-28T05:02:47;8.80;99.90
45435;DHT22;31183;47.404;8.500;2024-02-28T05:05:14;8.80;99.90
45435;DHT22;31183;47.404;8.500;2024-02-28T05:07:41;8.80;99.90
45435;DHT22;31183;47.404;8.500;2024-02-28T05:10:08;8.80;99.90
45435;DHT22;31183;47.404;8.500;2024-02-28T05:12:35;8.80;99.90
45435;DHT22;31183;47.404;8.500;2024-02-28T05:15:02;8.80;99.90
45435;DHT22;31183;47.404;8.500;2024-02-28T05:17:29;8.80;99.90
45435;DHT22;31183;47.404;8.500;2024-02-28T05:19:56;8.90;99.90
45435;DHT22;31183;47.404;8.500;2024-02-28T05:22:23;8.90;99.90
45435;DHT22;31183;47.404;8.500;2024-02-28T05:24:50;8.90;99.90
45435;DHT22;31183;47.404;8.500;2024-02-28T05:27:17;8.90;99.90
45435;DHT22;31183;47.404;8.500;2024-02-28T05:29:44;8.80;99.90
45435;DHT22;31183;47.404;8.500;2024-02-28T05:32:11;8.90;99.90
45435;DHT22;31183;47.404;8.500;2024-02-28T05:34:38;8.90;99.90
45435;DHT22;31183;47.404;8.500;2024-02-28T05:37:05;9.00;99.90
45435;DHT22;31183;47.404;8.500;2024-02-28T05:39:31;9.00;99.90
45435;DHT22;31183;47.404;8.500;2024-02-28T05:41:58;9.00;99.90
45435;DHT22;31183;47.404;8.500;2024-02-28T05:44:25;9.00;99.90
45435;DHT22;31183;47.404;8.500;2024-02-28T05:46:51;9.00;99.90
45435;DHT22;31183;47.404;8.500;2024-02-28T05:49:18;9.00;99.90
45435;DHT22;31183;47.404;8.500;2024-02-28T05:51:45;8.90;99.90
45435;DHT22;31183;47.404;8.500;2024-02-28T05:54:12;9.00;99.90
45435;DHT22;31183;47.404;8.500;2024-02-28T05:56:39;8.90;99.90
45435;DHT22;31183;47.404;8.500;2024-02-28T05:59:06;8.90;99.90
45435;DHT22;31183;47.404;8.500;2024-02-28T06:01:32;8.90;99.90
45435;DHT22;31183;47.404;8.500;2024-02-28T06:03:59;8.80;99.90
45435;DHT22;31183;47.404;8.500;2024-02-28T06:06:26;8.80;99.90
45435;DHT22;31183;47.404;8.500;2024-02-28T06:08:53;8.90;99.90
45435;DHT22;31183;47.404;8.500;2024-02-28T06:11:19;8.80;99.90
45435;DHT22;31183;47.404;8.500;2024-02-28T06:13:46;8.80;99.90
45435;DHT22;31183;47.404;8.500;2024-02-28T06:16:16;8.80;99.90
45435;DHT22;31183;47.404;8.500;2024-02-28T06:18:44;8.70;99.90
45435;DHT22;31183;47.404;8.500;2024-02-28T06:21:13;8.70;99.90
45435;DHT22;31183;47.404;8.500;2024-02-28T06:23:41;8.70;99.90
45435;DHT22;31183;47.404;8.500;2024-02-28T06:26:07;8.70;99.90
45435;DHT22;31183;47.404;8.500;2024-02-28T06:28:41;8.60;99.90
45435;DHT22;31183;47.404;8.500;2024-02-28T06:31:14;8.60;99.90
45435;DHT22;31183;47.404;8.500;2024-02-28T06:33:40;8.60;99.90
45435;DHT22;31183;47.404;8.500;2024-02-28T06:36:07;8.60;99.90
45435;DHT22;31183;47.404;8.500;2024-02-28T06:38:34;8.60;99.90
45435;DHT22;31183;47.404;8.500;2024-02-28T06:41:04;8.60;99.90
45435;DHT22;31183;47.404;8.500;2024-02-28T06:43:35;8.60;99.90
45435;DHT22;31183;47.404;8.500;2024-02-28T06:46:05;8.60;99.90
45435;DHT22;31183;47.404;8.500;2024-02-28T06:48:31;8.60;99.90
45435;DHT22;31183;47.404;8.500;2024-02-28T06:50:58;8.50;99.90
45435;DHT22;31183;47.404;8.500;2024-02-28T06:53:25;8.60;99.90
45435;DHT22;31183;47.404;8.500;2024-02-28T06:55:52;8.50;99.90
45435;DHT22;31183;47.404;8.500;2024-02-28T06:58:19;8.60;99.90
45435;DHT22;31183;47.404;8.500;2024-02-28T07:00:47;8.60;99.90
45435;DHT22;31183;47.404;8.500;2024-02-28T07:03:19;8.60;99.90
45435;DHT22;31183;47.404;8.500;2024-02-28T07:05:46;8.50;99.90
45435;DHT22;31183;47.404;8.500;2024-02-28T07:08:13;8.50;99.90
45435;DHT22;31183;47.404;8.500;2024-02-28T07:10:39;8.40;99.90
45435;DHT22;31183;47.404;8.500;2024-02-28T07:13:09;8.40;99.90
45435;DHT22;31183;47.404;8.500;2024-02-28T07:15:37;8.40;99.90
45435;DHT22;31183;47.404;8.500;2024-02-28T07:18:05;8.30;99.90
45435;DHT22;31183;47.404;8.500;2024-02-28T07:20:32;8.40;99.90
45435;DHT22;31183;47.404;8.500;2024-02-28T07:22:58;8.30;99.90
45435;DHT22;31183;47.404;8.500;2024-02-28T07:25:25;8.40;99.90
45435;DHT22;31183;47.404;8.500;2024-02-28T07:27:52;8.30;99.90
45435;DHT22;31183;47.404;8.500;2024-02-28T07:30:19;8.30;99.90
45435;DHT22;31183;47.404;8.500;2024-02-28T07:32:45;8.30;99.90
45435;DHT22;31183;47.404;8.500;2024-02-28T07:35:12;8.30;99.90
45435;DHT22;31183;47.404;8.500;2024-02-28T07:37:39;8.40;99.90
45435;DHT22;31183;47.404;8.500;2024-02-28T07:40:06;8.40;99.90
45435;DHT22;31183;47.404;8.500;2024-02-28T07:42:34;8.40;99.90
45435;DHT22;31183;47.404;8.500;2024-02-28T07:45:01;8.30;99.90
45435;DHT22;31183;47.404;8.500;2024-02-28T07:47:28;8.30;99.90
45435;DHT22;31183;47.404;8.500;2024-02-28T07:49:54;8.30;99.90
45435;DHT22;31183;47.404;8.500;2024-02-28T07:52:21;8.30;99.90
45435;DHT22;31183;47.404;8.500;2024-02-28T07:54:48;8.30;99.90
45435;DHT22;31183;47.404;8.500;2024-02-28T07:57:14;8.20;99.90
45435;DHT22;31183;47.404;8.500;2024-02-28T07:59:42;8.20;99.90
45435;DHT22;31183;47.404;8.500;2024-02-28T08:02:09;8.30;99.90
45435;DHT22;31183;47.404;8.500;2024-02-28T08:04:40;8.30;99.90
45435;DHT22;31183;47.404;8.500;2024-02-28T08:07:06;8.30;99.90
45435;DHT22;31183;47.404;8.500;2024-02-28T08:09:33;8.40;99.90
45435;DHT22;31183;47.404;8.500;2024-02-28T08:12:00;8.30;99.90
45435;DHT22;31183;47.404;8.500;2024-02-28T08:14:27;8.40;99.90
45435;DHT22;31183;47.404;8.500;2024-02-28T08:16:54;8.40;99.90
45435;DHT22;31183;47.404;8.500;2024-02-28T08:19:21;8.40;99.90
45435;DHT22;31183;47.404;8.500;2024-02-28T08:21:47;8.50;99.90
45435;DHT22;31183;47.404;8.500;2024-02-28T08:24:14;8.50;99.90
45435;DHT22;31183;47.404;8.500;2024-02-28T08:26:40;8.40;99.90
45435;DHT22;31183;47.404;8.500;2024-02-28T08:29:08;8.40;99.90
45435;DHT22;31183;47.404;8.500;2024-02-28T08:31:43;8.40;99.90
45435;DHT22;31183;47.404;8.500;2024-02-28T08:34:10;8.40;99.90
45435;DHT22;31183;47.404;8.500;2024-02-28T08:36:37;8.40;99.90
45435;DHT22;31183;47.404;8.500;2024-02-28T08:39:03;8.50;99.90
45435;DHT22;31183;47.404;8.500;2024-02-28T08:41:34;8.50;99.90
45435;DHT22;31183;47.404;8.500;2024-02-28T08:44:01;8.50;99.90
45435;DHT22;31183;47.404;8.500;2024-02-28T08:46:27;8.50;99.90
45435;DHT22;31183;47.404;8.500;2024-02-28T08:48:54;8.50;99.90
45435;DHT22;31183;47.404;8.500;2024-02-28T08:51:21;8.50;99.90
45435;DHT22;31183;47.404;8.500;2024-02-28T08:53:48;8.50;99.90
45435;DHT22;31183;47.404;8.500;2024-02-28T08:56:14;8.50;99.90
45435;DHT22;31183;47.404;8.500;2024-02-28T08:58:41;8.50;99.90
45435;DHT22;31183;47.404;8.500;2024-02-28T09:01:08;8.50;99.90
45435;DHT22;31183;47.404;8.500;2024-02-28T09:03:34;8.50;99.90
45435;DHT22;31183;47.404;8.500;2024-02-28T09:06:01;8.50;99.90
45435;DHT22;31183;47.404;8.500;2024-02-28T09:08:28;8.50;99.90
45435;DHT22;31183;47.404;8.500;2024-02-28T09:10:54;8.40;99.90
45435;DHT22;31183;47.404;8.500;2024-02-28T09:13:21;8.40;99.90
45435;DHT22;31183;47.404;8.500;2024-02-28T09:15:48;8.40;99.90
45435;DHT22;31183;47.404;8.500;2024-02-28T09:18:18;8.40;99.90
45435;DHT22;31183;47.404;8.500;2024-02-28T09:20:44;8.40;99.90
45435;DHT22;31183;47.404;8.500;2024-02-28T09:23:11;8.40;99.90
45435;DHT22;31183;47.404;8.500;2024-02-28T09:25:38;8.40;99.90
45435;DHT22;31183;47.404;8.500;2024-02-28T09:28:04;8.40;99.90
45435;DHT22;31183;47.404;8.500;2024-02-28T09:30:31;8.40;99.90
45435;DHT22;31183;47.404;8.500;2024-02-28T09:33:11;8.50;99.90
45435;DHT22;31183;47.404;8.500;2024-02-28T09:35:38;8.50;99.90
45435;DHT22;31183;47.404;8.500;2024-02-28T09:38:05;8.60;99.90
45435;DHT22;31183;47.404;8.500;2024-02-28T09:40:32;8.60;99.90
45435;DHT22;31183;47.404;8.500;2024-02-28T09:43:03;8.60;99.90
45435;DHT22;31183;47.404;8.500;2024-02-28T09:45:30;8.70;99.90
45435;DHT22;31183;47.404;8.500;2024-02-28T09:48:01;8.70;99.90
45435;DHT22;31183;47.404;8.500;2024-02-28T09:50:30;8.70;99.90
45435;DHT22;31183;47.404;8.500;2024-02-28T09:52:56;8.70;99.90
45435;DHT22;31183;47.404;8.500;2024-02-28T09:55:36;8.70;99.90
45435;DHT22;31183;47.404;8.500;2024-02-28T09:58:03;8.80;99.90
45435;DHT22;31183;47.404;8.500;2024-02-28T10:00:30;8.80;99.90
45435;DHT22;31183;47.404;8.500;2024-02-28T10:02:57;8.80;99.90
45435;DHT22;31183;47.404;8.500;2024-02-28T10:05:24;8.80;99.90
45435;DHT22;31183;47.404;8.500;2024-02-28T10:07:53;8.80;99.90
45435;DHT22;31183;47.404;8.500;2024-02-28T10:10:20;8.80;99.90
45435;DHT22;31183;47.404;8.500;2024-02-28T10:12:48;8.70;99.90
45435;DHT22;31183;47.404;8.500;2024-02-28T10:15:14;8.80;99.90
45435;DHT22;31183;47.404;8.500;2024-02-28T10:17:41;8.80;99.90
45435;DHT22;31183;47.404;8.500;2024-02-28T10:20:08;8.80;99.90
45435;DHT22;31183;47.404;8.500;2024-02-28T10:22:36;8.80;99.90
45435;DHT22;31183;47.404;8.500;2024-02-28T10:25:03;8.90;99.90
45435;DHT22;31183;47.404;8.500;2024-02-28T10:27:34;8.90;99.90
45435;DHT22;31183;47.404;8.500;2024-02-28T10:30:02;9.00;99.90
45435;DHT22;31183;47.404;8.500;2024-02-28T10:32:32;9.00;99.90
45435;DHT22;31183;47.404;8.500;2024-02-28T10:35:02;9.10;99.90
45435;DHT22;31183;47.404;8.500;2024-02-28T10:37:29;9.20;99.90
45435;DHT22;31183;47.404;8.500;2024-02-28T10:39:59;9.20;99.90
45435;DHT22;31183;47.404;8.500;2024-02-28T10:42:29;9.10;99.90
45435;DHT22;31183;47.404;8.500;2024-02-28T10:44:57;9.20;99.90
45435;DHT22;31183;47.404;8.500;2024-02-28T10:47:45;9.20;99.90
45435;DHT22;31183;47.404;8.500;2024-02-28T10:50:14;9.30;99.90
45435;DHT22;31183;47.404;8.500;2024-02-28T10:52:46;9.10;99.90
45435;DHT22;31183;47.404;8.500;2024-02-28T10:55:21;9.10;99.90
45435;DHT22;31183;47.404;8.500;2024-02-28T10:58:02;9.10;99.90
45435;DHT22;31183;47.404;8.500;2024-02-28T11:00:31;9.20;99.90
45435;DHT22;31183;47.404;8.500;2024-02-28T11:02:58;9.10;99.90
45435;DHT22;31183;47.404;8.500;2024-02-28T11:05:36;9.10;99.90
45435;DHT22;31183;47.404;8.500;2024-02-28T11:08:10;9.10;99.90
45435;DHT22;31183;47.404;8.500;2024-02-28T11:10:41;9.60;99.90
45435;DHT22;31183;47.404;8.500;2024-02-28T11:13:10;9.10;99.90
45435;DHT22;31183;47.404;8.500;2024-02-28T11:15:47;9.20;99.90
45435;DHT22;31183;47.404;8.500;2024-02-28T11:18:14;9.30;99.90
45435;DHT22;31183;47.404;8.500;2024-02-28T11:20:41;9.40;99.90
45435;DHT22;31183;47.404;8.500;2024-02-28T11:23:10;9.40;99.90
45435;DHT22;31183;47.404;8.500;2024-02-28T11:25:37;9.50;99.90
45435;DHT22;31183;47.404;8.500;2024-02-28T11:28:04;9.40;99.90
45435;DHT22;31183;47.404;8.500;2024-02-28T11:30:31;9.50;99.90
45435;DHT22;31183;47.404;8.500;2024-02-28T11:32:58;9.50;99.90
45435;DHT22;31183;47.404;8.500;2024-02-28T11:35:32;9.50;99.90
45435;DHT22;31183;47.404;8.500;2024-02-28T11:37:59;9.50;99.90
45435;DHT22;31183;47.404;8.500;2024-02-28T11:40:26;9.50;99.90
45435;DHT22;31183;47.404;8.500;2024-02-28T11:42:54;9.40;99.90
45435;DHT22;31183;47.404;8.500;2024-02-28T11:45:22;9.40;99.90
45435;DHT22;31183;47.404;8.500;2024-02-28T11:47:49;9.50;99.90
45435;DHT22;31183;47.404;8.500;2024-02-28T11:50:16;9.60;99.90
45435;DHT22;31183;47.404;8.500;2024-02-28T11:52:46;9.70;99.90
45435;DHT22;31183;47.404;8.500;2024-02-28T11:55:14;9.70;99.90
45435;DHT22;31183;47.404;8.500;2024-02-28T11:57:40;9.70;99.90
45435;DHT22;31183;47.404;8.500;2024-02-28T12:00:08;9.70;99.90
45435;DHT22;31183;47.404;8.500;2024-02-28T12:02:41;9.70;99.90
45435;DHT22;31183;47.404;8.500;2024-02-28T12:05:08;9.70;99.90
45435;DHT22;31183;47.404;8.500;2024-02-28T12:07:36;9.70;99.90
45435;DHT22;31183;47.404;8.500;2024-02-28T12:10:04;9.60;99.90
45435;DHT22;31183;47.404;8.500;2024-02-28T12:12:31;9.60;99.90
45435;DHT22;31183;47.404;8.500;2024-02-28T12:15:01;9.60;99.90
45435;DHT22;31183;47.404;8.500;2024-02-28T12:17:31;9.60;99.90
45435;DHT22;31183;47.404;8.500;2024-02-28T12:20:01;9.60;99.90
45435;DHT22;31183;47.404;8.500;2024-02-28T12:22:28;9.70;99.90
45435;DHT22;31183;47.404;8.500;2024-02-28T12:24:55;9.70;99.90
45435;DHT22;31183;47.404;8.500;2024-02-28T12:27:22;9.70;99.90
45435;DHT22;31183;47.404;8.500;2024-02-28T12:29:48;9.60;99.90
45435;DHT22;31183;47.404;8.500;2024-02-28T12:32:15;9.60;99.90
45435;DHT22;31183;47.404;8.500;2024-02-28T12:34:44;9.70;99.90
45435;DHT22;31183;47.404;8.500;2024-02-28T12:37:11;9.70;99.90
45435;DHT22;31183;47.404;8.500;2024-02-28T12:39:37;9.80;99.90
45435;DHT22;31183;47.404;8.500;2024-02-28T12:42:04;9.70;99.90
45435;DHT22;31183;47.404;8.500;2024-02-28T12:44:33;9.70;99.90
45435;DHT22;31183;47.404;8.500;2024-02-28T12:46:59;9.70;99.90
45435;DHT22;31183;47.404;8.500;2024-02-28T12:49:26;9.70;99.90
45435;DHT22;31183;47.404;8.500;2024-02-28T12:51:53;9.70;99.90
45435;DHT22;31183;47.404;8.500;2024-02-28T12:54:19;9.70;99.90
45435;DHT22;31183;47.404;8.500;2024-02-28T12:56:47;9.70;99.90
45435;DHT22;31183;47.404;8.500;2024-02-28T12:59:14;9.80;99.90
45435;DHT22;31183;47.404;8.500;2024-02-28T13:01:41;9.80;99.90
45435;DHT22;31183;47.404;8.500;2024-02-28T13:04:08;9.80;99.90
45435;DHT22;31183;47.404;8.500;2024-02-28T13:06:35;9.80;99.90
45435;DHT22;31183;47.404;8.500;2024-02-28T13:09:02;9.80;99.90
45435;DHT22;31183;47.404;8.500;2024-02-28T13:11:29;9.80;99.90
45435;DHT22;31183;47.404;8.500;2024-02-28T13:13:55;9.80;99.90
45435;DHT22;31183;47.404;8.500;2024-02-28T13:16:22;9.80;99.90
45435;DHT22;31183;47.404;8.500;2024-02-28T13:18:49;9.80;99.90
45435;DHT22;31183;47.404;8.500;2024-02-28T13:21:16;9.80;99.90
45435;DHT22;31183;47.404;8.500;2024-02-28T13:23:42;9.80;99.90
45435;DHT22;31183;47.404;8.500;2024-02-28T13:26:09;9.80;99.90
45435;DHT22;31183;47.404;8.500;2024-02-28T13:28:44;9.80;99.90
45435;DHT22;31183;47.404;8.500;2024-02-28T13:31:15;9.90;99.90
45435;DHT22;31183;47.404;8.500;2024-02-28T13:33:42;9.90;99.90
45435;DHT22;31183;47.404;8.500;2024-02-28T13:36:09;9.90;99.90
45435;DHT22;31183;47.404;8.500;2024-02-28T13:38:36;9.90;99.90
45435;DHT22;31183;47.404;8.500;2024-02-28T13:41:03;9.90;99.90
45435;DHT22;31183;47.404;8.500;2024-02-28T13:43:30;9.90;99.90
45435;DHT22;31183;47.404;8.500;2024-02-28T13:45:57;9.90;99.90
45435;DHT22;31183;47.404;8.500;2024-02-28T13:48:27;9.90;99.90
45435;DHT22;31183;47.404;8.500;2024-02-28T13:51:00;9.90;99.90
45435;DHT22;31183;47.404;8.500;2024-02-28T13:53:26;10.00;99.90
45435;DHT22;31183;47.404;8.500;2024-02-28T13:55:53;10.00;99.90
45435;DHT22;31183;47.404;8.500;2024-02-28T13:58:20;10.00;99.90
45435;DHT22;31183;47.404;8.500;2024-02-28T14:00:47;10.00;99.90
45435;DHT22;31183;47.404;8.500;2024-02-28T14:03:14;10.00;99.90
45435;DHT22;31183;47.404;8.500;2024-02-28T14:05:41;10.10;99.90
45435;DHT22;31183;47.404;8.500;2024-02-28T14:08:08;10.00;99.90
45435;DHT22;31183;47.404;8.500;2024-02-28T14:10:36;10.00;99.90
45435;DHT22;31183;47.404;8.500;2024-02-28T14:13:03;10.00;99.90
45435;DHT22;31183;47.404;8.500;2024-02-28T14:15:30;10.00;99.90
45435;DHT22;31183;47.404;8.500;2024-02-28T14:17:57;9.90;99.90
45435;DHT22;31183;47.404;8.500;2024-02-28T14:20:24;9.80;99.90
45435;DHT22;31183;47.404;8.500;2024-02-28T14:22:51;9.80;99.90
45435;DHT22;31183;47.404;8.500;2024-02-28T14:25:18;9.70;99.90
45435;DHT22;31183;47.404;8.500;2024-02-28T14:27:47;9.70;99.90
45435;DHT22;31183;47.404;8.500;2024-02-28T14:30:14;9.70;99.90
45435;DHT22;31183;47.404;8.500;2024-02-28T14:32:42;9.80;99.90
45435;DHT22;31183;47.404;8.500;2024-02-28T14:35:10;9.80;99.90
45435;DHT22;31183;47.404;8.500;2024-02-28T14:37:38;9.80;99.90
45435;DHT22;31183;47.404;8.500;2024-02-28T14:40:08;9.70;99.90
45435;DHT22;31183;47.404;8.500;2024-02-28T14:42:39;9.70;99.90
45435;DHT22;31183;47.404;8.500;2024-02-28T14:45:09;9.60;99.90
45435;DHT22;31183;47.404;8.500;2024-02-28T14:47:38;9.60;99.90
45435;DHT22;31183;47.404;8.500;2024-02-28T14:50:05;9.60;99.90
45435;DHT22;31183;47.404;8.500;2024-02-28T14:52:34;9.50;99.90
45435;DHT22;31183;47.404;8.500;2024-02-28T14:55:01;9.60;99.90
45435;DHT22;31183;47.404;8.500;2024-02-28T14:57:28;9.60;99.90
45435;DHT22;31183;47.404;8.500;2024-02-28T14:59:57;9.50;99.90
45435;DHT22;31183;47.404;8.500;2024-02-28T15:02:24;9.60;99.90
45435;DHT22;31183;47.404;8.500;2024-02-28T15:04:50;9.70;99.90
45435;DHT22;31183;47.404;8.500;2024-02-28T15:07:17;9.70;99.90
45435;DHT22;31183;47.404;8.500;2024-02-28T15:09:44;9.70;99.90
45435;DHT22;31183;47.404;8.500;2024-02-28T15:12:11;9.70;99.90
45435;DHT22;31183;47.404;8.500;2024-02-28T15:14:39;9.60;99.90
45435;DHT22;31183;47.404;8.500;2024-02-28T15:17:05;9.60;99.90
45435;DHT22;31183;47.404;8.500;2024-02-28T15:19:32;9.60;99.90
45435;DHT22;31183;47.404;8.500;2024-02-28T15:21:59;9.60;99.90
45435;DHT22;31183;47.404;8.500;2024-02-28T15:24:26;9.60;99.90
45435;DHT22;31183;47.404;8.500;2024-02-28T15:26:53;9.50;99.90
45435;DHT22;31183;47.404;8.500;2024-02-28T15:29:20;9.50;99.90
45435;DHT22;31183;47.404;8.500;2024-02-28T15:31:48;9.50;99.90
45435;DHT22;31183;47.404;8.500;2024-02-28T15:34:14;9.50;99.90
45435;DHT22;31183;47.404;8.500;2024-02-28T15:36:41;9.60;99.90
45435;DHT22;31183;47.404;8.500;2024-02-28T15:39:08;9.60;99.90
45435;DHT22;31183;47.404;8.500;2024-02-28T15:41:36;9.50;99.90
45435;DHT22;31183;47.404;8.500;2024-02-28T15:44:07;9.50;99.90
45435;DHT22;31183;47.404;8.500;2024-02-28T15:46:33;9.40;99.90